map of QPA home
Great Circle Mapper logo
QPA - Airport
Location
City:  Padua, Veneto, Italy
Near (Alt.):Padova
Name:Gino Allegri
ICAO / IATA:LIPU / QPA

Details
Type:Airport (Aerodrome, Airfield)
Use:Public/Civil
Latitude:4523'45"N (45.395767)
Longitude:1150'52"E (11.847903)
Datum:WGS 1984
Elevation:44 ft (13 m)
Runways:1
Longest:3681 × 98 ft (1122 × 30 m), paved

Time
Time Zone:UTC+1 (DST+2)
Local Time:

Weather
METAR:LIPU 231550Z 15007KT 9999 SCT070 15/08 Q1008

Related Locations
Nearby:
Farthest:CHT: 12016 mi / 19338 km
Waitangi [Tuuta], Chatham Islands, NZ

Find:

   beyond  
but within

Other Information
Maps:
NOTAMs:
Links:
Sources:

  
flag of Italy
flag of Veneto
  

Sectional Chart

Flight Planning
at skyvector.com

Satellite Image

Google Maps Satellite View

 

Copyright © 2004-2014 Karl L. Swartz. All rights reserved.
The Great Circle Mapper name and logo are trademarks of the Great Circle Mapper.
All other trademarks mentioned herein belong to their respective owners.
Please see credits for attibutions and further copyright information.

  Follow gcmap on Facebook Follow gcmap on Twitter

hCard Microformat

Geo Microformat